Time;durP1;ratioP1;P1;durP2;ratioP2;P2;SDS_P1;SDS_P2;PMS_P1;PMS_P2;Temp;Humidity;BMP_temperature;BMP_pressure;BME280_temperature;BME280_humidity;BME280_pressure;Samples;Min_cycle;Max_cycle;Signal;HPM_P1;HPM_P2
2023/08/30 00:00:36;;;;;;;10.02;8.80;;;;;;;8.58;100.00;92526.53;2120226;27;20022;-81
2023/08/30 00:01:37;;;;;;;11.52;8.25;;;;;;;8.76;100.00;92512.78;2117537;27;20102;-80
2023/08/30 00:02:38;;;;;;;12.23;8.43;;;;;;;8.71;100.00;92521.28;2118876;27;20038;-81
2023/08/30 00:03:39;;;;;;;11.27;8.73;;;;;;;8.74;100.00;92519.72;2118010;27;20039;-80
2023/08/30 00:04:42;;;;;;;9.00;8.10;;;;;;;8.80;100.00;92518.03;2116728;27;20019;-79
2023/08/30 00:05:43;;;;;;;9.82;8.57;;;;;;;8.74;100.00;92517.06;2118145;27;20402;-80
2023/08/30 00:06:45;;;;;;;9.50;8.50;;;;;;;8.70;100.00;92516.38;2111063;28;20027;-80
2023/08/30 00:07:46;;;;;;;9.90;8.80;;;;;;;8.72;100.00;92525.44;2109582;28;20088;-79
2023/08/30 00:08:47;;;;;;;10.52;9.23;;;;;;;8.65;100.00;92514.97;2100891;28;20409;-79
2023/08/30 00:09:48;;;;;;;12.13;8.98;;;;;;;8.65;100.00;92511.53;2107032;28;20107;-79
2023/08/30 00:10:49;;;;;;;9.98;8.68;;;;;;;8.60;100.00;92512.78;2117005;27;20027;-81
2023/08/30 00:11:50;;;;;;;10.45;8.85;;;;;;;8.57;100.00;92509.06;2110622;28;20031;-80
2023/08/30 00:12:51;;;;;;;12.85;8.98;;;;;;;8.53;100.00;92519.06;2109717;28;20385;-80
2023/08/30 00:13:52;;;;;;;11.13;8.30;;;;;;;8.60;100.00;92509.38;2113540;27;20030;-79
2023/08/30 00:14:53;;;;;;;10.13;8.43;;;;;;;8.53;100.00;92508.41;2106815;28;23306;-79
2023/08/30 00:15:54;;;;;;;12.27;8.80;;;;;;;8.57;100.00;92506.41;2093036;28;20051;-78
2023/08/30 00:16:55;;;;;;;13.93;9.02;;;;;;;8.49;100.00;92515.72;2111866;28;20133;-80
2023/08/30 00:17:56;;;;;;;10.15;9.05;;;;;;;8.54;100.00;92504.56;2106674;27;20104;-80
2023/08/30 00:18:57;;;;;;;10.23;8.85;;;;;;;8.65;100.00;92503.53;2118038;27;20092;-79
2023/08/30 00:19:59;;;;;;;10.57;9.25;;;;;;;8.50;100.00;92508.47;2115193;27;20027;-79
2023/08/30 00:21:00;;;;;;;11.63;8.88;;;;;;;8.56;100.00;92506.81;2109874;28;20158;-80
2023/08/30 00:22:01;;;;;;;15.15;9.52;;;;;;;8.52;100.00;92506.16;2109213;28;20029;-80
2023/08/30 00:23:03;;;;;;;12.88;9.18;;;;;;;8.60;100.00;92501.38;2108706;28;20462;-78
2023/08/30 00:24:04;;;;;;;13.13;9.23;;;;;;;8.55;100.00;92499.97;2109729;28;20076;-79
2023/08/30 00:25:05;;;;;;;14.52;9.18;;;;;;;8.55;100.00;92499.97;2108442;28;20070;-79
2023/08/30 00:26:06;;;;;;;11.65;9.15;;;;;;;8.58;100.00;92505.22;2109506;28;20124;-79
2023/08/30 00:27:07;;;;;;;11.90;9.38;;;;;;;8.58;100.00;92499.91;2101556;28;20032;-80
2023/08/30 00:28:08;;;;;;;14.27;9.90;;;;;;;8.56;100.00;92502.25;2100527;28;20422;-79
2023/08/30 00:29:09;;;;;;;11.63;8.70;;;;;;;8.53;100.00;92497.75;2109574;28;20032;-80
2023/08/30 00:30:11;;;;;;;13.20;8.90;;;;;;;8.46;100.00;92492.56;2111008;28;20116;-81
2023/08/30 00:31:12;;;;;;;13.52;9.38;;;;;;;8.41;100.00;92495.75;2111036;28;20028;-80
2023/08/30 00:32:13;;;;;;;14.18;9.27;;;;;;;8.49;100.00;92491.00;2116978;27;20056;-80
2023/08/30 00:33:14;;;;;;;12.05;8.25;;;;;;;8.49;100.00;92496.34;2116392;27;20023;-80
2023/08/30 00:34:15;;;;;;;9.50;8.55;;;;;;;8.40;100.00;92498.84;2109116;28;20055;-81
2023/08/30 00:35:16;;;;;;;16.60;9.40;;;;;;;8.33;100.00;92489.81;2117273;27;20023;-80
2023/08/30 00:36:18;;;;;;;25.10;10.13;;;;;;;8.35;100.00;92492.06;2117929;27;20557;-80
2023/08/30 00:37:19;;;;;;;153.07;11.13;;;;;;;8.22;100.00;92491.22;2119301;27;20407;-79
2023/08/30 00:38:20;;;;;;;321.73;14.15;;;;;;;8.22;100.00;92499.97;2117100;27;20019;-79
2023/08/30 00:39:21;;;;;;;316.13;12.60;;;;;;;8.32;100.00;92492.88;2105176;28;20155;-80
2023/08/30 00:40:25;;;;;;;197.15;11.15;;;;;;;8.42;100.00;92497.25;2105530;28;20031;-81
2023/08/30 00:41:26;;;;;;;97.07;9.30;;;;;;;8.47;100.00;92488.78;2105799;28;20056;-79
2023/08/30 00:42:27;;;;;;;72.85;9.07;;;;;;;8.43;100.00;92496.09;2108507;28;20035;-79
2023/08/30 00:43:28;;;;;;;64.93;8.60;;;;;;;8.43;100.00;92496.09;2117901;27;20020;-81
2023/08/30 00:44:29;;;;;;;25.75;7.35;;;;;;;8.40;100.00;92488.19;2106267;28;20133;-79
2023/08/30 00:45:30;;;;;;;123.15;8.93;;;;;;;8.26;100.00;92487.31;2108132;27;20705;-80
2023/08/30 00:46:33;;;;;;;85.15;8.93;;;;;;;8.21;100.00;92489.72;2118545;27;20027;-80
2023/08/30 00:47:35;;;;;;;21.88;7.25;;;;;;;8.20;100.00;92485.56;2110686;28;20027;-79
2023/08/30 00:48:36;;;;;;;9.60;7.15;;;;;;;8.21;100.00;92492.38;2101789;28;20024;-79
2023/08/30 00:49:37;;;;;;;77.78;8.57;;;;;;;8.12;100.00;92487.66;2117890;27;20507;-79
2023/08/30 00:50:39;;;;;;;42.65;7.75;;;;;;;8.05;100.00;92483.22;2114068;27;20092;-80
2023/08/30 00:51:40;;;;;;;8.02;6.93;;;;;;;8.15;100.00;92480.75;2109484;28;20107;-79
2023/08/30 00:52:41;;;;;;;9.88;6.65;;;;;;;8.19;100.00;92484.06;2117200;27;20075;-80
2023/08/30 00:53:43;;;;;;;7.72;6.85;;;;;;;8.08;100.00;92485.06;2117306;27;20454;-81
2023/08/30 00:54:44;;;;;;;6.88;6.20;;;;;;;8.14;100.00;92482.66;2109291;28;20055;-79
2023/08/30 00:55:45;;;;;;;8.15;6.30;;;;;;;8.09;100.00;92485.81;2101673;28;20071;-80
2023/08/30 00:56:47;;;;;;;7.43;6.00;;;;;;;8.08;100.00;92485.06;2117880;27;20083;-79
2023/08/30 00:57:48;;;;;;;12.65;6.55;;;;;;;8.07;100.00;92480.16;2118147;27;20035;-79
2023/08/30 00:58:50;;;;;;;14.48;6.30;;;;;;;8.01;100.00;92487.88;2117355;27;20506;-81
2023/08/30 00:59:53;;;;;;;6.20;5.60;;;;;;;8.00;100.00;92482.97;2117861;27;20077;-79
2023/08/30 01:00:54;;;;;;;32.92;6.47;;;;;;;7.97;100.00;92484.53;2115418;27;20479;-80
2023/08/30 01:01:56;;;;;;;16.15;6.18;;;;;;;7.95;100.00;92480.81;2117057;27;20019;-80
2023/08/30 01:02:57;;;;;;;6.28;5.03;;;;;;;7.94;100.00;92481.97;2108258;28;20024;-79
2023/08/30 01:03:58;;;;;;;15.55;5.47;;;;;;;7.94;100.00;92482.69;2118208;27;20056;-79
2023/08/30 01:04:59;;;;;;;11.60;5.13;;;;;;;7.85;100.00;92477.22;2117740;27;20076;-79
2023/08/30 01:06:01;;;;;;;5.95;5.00;;;;;;;7.85;100.00;92479.88;2109916;28;20505;-81
2023/08/30 01:07:02;;;;;;;5.63;5.00;;;;;;;7.82;100.00;92481.47;2109639;27;20027;-80
2023/08/30 01:08:03;;;;;;;6.68;4.72;;;;;;;7.92;100.00;92471.75;2117673;27;20032;-80
2023/08/30 01:09:04;;;;;;;20.25;5.07;;;;;;;7.87;100.00;92469.56;2109375;28;20411;-79
2023/08/30 01:10:06;;;;;;;31.67;5.95;;;;;;;7.89;100.00;92471.81;2100788;28;20032;-81
2023/08/30 01:11:16;;;;;;;44.80;5.88;;;;;;;7.96;100.00;92472.41;2108672;28;20019;-80
2023/08/30 01:12:21;;;;;;;;;;;;;;;7.93;100.00;92470.56;2120184;27;20108;-78
2023/08/30 01:13:22;;;;;;;66.45;6.05;;;;;;;7.87;100.00;92474.91;2117679;27;19918;-81
2023/08/30 01:14:30;;;;;;;55.20;5.88;;;;;;;7.87;100.00;92474.91;2109342;28;20088;-79
2023/08/30 01:15:34;;;;;;;21.77;5.30;;;;;;;7.89;100.00;92467.25;2113542;27;20031;-80
2023/08/30 01:16:36;;;;;;;22.05;5.15;;;;;;;7.75;100.00;92470.22;2118339;27;20065;-80
2023/08/30 01:17:41;;;;;;;7.75;5.10;;;;;;;7.86;100.00;92472.63;2119015;27;20030;-79
2023/08/30 01:18:43;;;;;;;5.60;5.10;;;;;;;7.79;100.00;92474.28;2117651;27;20027;-80
2023/08/30 01:19:58;;;;;;;8.30;5.38;;;;;;;7.85;100.00;92474.53;2117596;27;20051;-79
2023/08/30 01:21:02;;;;;;;6.45;5.32;;;;;;;7.80;100.00;92473.13;2107397;27;20020;-80
2023/08/30 01:22:39;;;;;;;6.57;5.82;;;;;;;7.80;100.00;92467.06;2118426;27;20038;-80
2023/08/30 01:23:48;;;;;;;8.70;5.43;;;;;;;7.66;100.00;92465.47;2081273;28;20051;-79
2023/08/30 01:25:26;;;;;;;6.40;5.80;;;;;;;7.70;100.00;92460.81;2088148;27;20039;-80
2023/08/30 01:26:42;;;;;;;9.30;5.97;;;;;;;7.69;100.00;92464.63;2110627;27;20027;-79
2023/08/30 01:27:45;;;;;;;11.98;5.75;;;;;;;7.64;100.00;92473.13;2106500;28;20126;-79
2023/08/30 01:28:49;;;;;;;7.45;5.63;;;;;;;7.68;100.00;92468.47;2108774;28;20415;-81
2023/08/30 01:29:50;;;;;;;7.10;5.32;;;;;;;7.77;100.00;92470.53;2109419;28;20031;-80
2023/08/30 01:30:54;;;;;;;6.07;5.47;;;;;;;7.75;100.00;92464.91;2119300;27;20053;-80
2023/08/30 01:31:56;;;;;;;9.90;5.32;;;;;;;7.65;100.00;92468.53;2113349;27;20023;-79
2023/08/30 01:32:59;;;;;;;6.15;5.57;;;;;;;7.63;100.00;92468.19;2117508;27;20038;-79
2023/08/30 01:34:03;;;;;;;17.42;5.70;;;;;;;7.58;100.00;92472.09;2105302;28;20027;-79
2023/08/30 01:35:06;;;;;;;13.50;5.32;;;;;;;7.50;100.00;92466.16;2109608;27;20028;-80
2023/08/30 01:36:07;;;;;;;14.00;5.28;;;;;;;7.53;100.00;92464.59;2119467;27;20027;-79
2023/08/30 01:37:09;;;;;;;7.68;5.40;;;;;;;7.51;100.00;92469.59;2117176;27;20046;-78
2023/08/30 01:38:11;;;;;;;10.38;5.35;;;;;;;7.47;100.00;92467.00;2117516;27;20039;-79
2023/08/30 01:39:14;;;;;;;9.27;5.40;;;;;;;7.46;100.00;92470.06;2116942;27;20540;-80
2023/08/30 01:40:16;;;;;;;7.25;5.47;;;;;;;7.48;100.00;92468.50;2116277;27;20022;-80
2023/08/30 01:41:18;;;;;;;7.28;5.30;;;;;;;7.49;100.00;92466.56;2117579;27;20068;-79
2023/08/30 01:42:22;;;;;;;9.38;5.50;;;;;;;7.46;100.00;92462.06;2118945;27;20033;-80
2023/08/30 01:43:26;;;;;;;6.10;5.38;;;;;;;7.49;100.00;92462.00;2113422;27;20038;-79
2023/08/30 01:44:28;;;;;;;6.18;5.40;;;;;;;7.34;100.00;92460.06;2108750;28;20024;-79
2023/08/30 01:45:31;;;;;;;9.75;5.28;;;;;;;7.38;100.00;92461.50;2115039;27;20031;-79
2023/08/30 01:46:33;;;;;;;6.93;5.25;;;;;;;7.36;100.00;92453.16;2106364;28;20020;-80
2023/08/30 01:47:35;;;;;;;7.90;5.60;;;;;;;7.32;100.00;92460.47;2120877;27;20428;-81
2023/08/30 01:48:37;;;;;;;6.70;6.00;;;;;;;7.37;100.00;92457.31;2116545;27;20076;-80
2023/08/30 01:49:39;;;;;;;6.30;5.30;;;;;;;7.38;100.00;92460.75;2117414;27;20371;-80
2023/08/30 01:50:42;;;;;;;7.00;6.30;;;;;;;7.29;100.00;92453.31;2107274;28;20028;-79
2023/08/30 01:51:43;;;;;;;7.47;6.65;;;;;;;7.27;100.00;92448.41;2117337;27;20038;-79
2023/08/30 01:52:45;;;;;;;6.45;5.85;;;;;;;7.34;100.00;92460.06;2117612;27;20020;-80
2023/08/30 01:53:46;;;;;;;10.45;6.28;;;;;;;7.25;100.00;92457.97;2117710;27;20022;-79
2023/08/30 01:54:50;;;;;;;7.53;5.38;;;;;;;7.35;100.00;92450.94;2117710;27;20087;-80
2023/08/30 01:55:51;;;;;;;6.78;5.55;;;;;;;7.29;100.00;92455.97;2120014;27;20023;-79
2023/08/30 01:56:52;;;;;;;7.85;5.57;;;;;;;7.22;100.00;92454.19;2116367;27;20047;-79
2023/08/30 01:57:53;;;;;;;8.25;6.15;;;;;;;7.26;100.00;92451.47;2117405;27;20027;-80
2023/08/30 01:58:54;;;;;;;9.02;5.40;;;;;;;7.24;100.00;92461.75;2117584;27;20027;-78
2023/08/30 01:59:55;;;;;;;5.68;5.18;;;;;;;7.16;100.00;92455.84;2108635;28;20023;-79
2023/08/30 02:00:57;;;;;;;8.00;5.47;;;;;;;7.20;100.00;92458.41;2100245;28;20422;-79
2023/08/30 02:01:58;;;;;;;5.57;5.00;;;;;;;7.14;100.00;92458.16;2113660;27;20098;-79
2023/08/30 02:02:59;;;;;;;10.05;5.30;;;;;;;7.14;100.00;92457.41;2117932;27;20077;-80
2023/08/30 02:04:00;;;;;;;8.98;5.57;;;;;;;6.97;100.00;92460.00;2108292;28;20028;-80
2023/08/30 02:05:01;;;;;;;25.77;5.45;;;;;;;6.91;100.00;92466.94;2108946;28;20040;-80
2023/08/30 02:06:17;;;;;;;44.45;6.18;;;;;;;6.90;100.00;92457.47;2117558;27;20023;-80
2023/08/30 02:07:26;;;;;;;71.00;6.88;;;;;;;6.86;100.00;92458.72;2105409;28;20020;-79
2023/08/30 02:08:44;;;;;;;105.60;6.60;;;;;;;6.86;100.00;92464.03;2106715;27;20027;-80
2023/08/30 02:10:08;;;;;;;40.10;5.47;;;;;;;6.90;100.00;92470.03;2116020;27;20023;-79
2023/08/30 02:11:16;;;;;;;37.30;5.05;;;;;;;6.91;100.00;92461.63;2103074;28;20130;-79
2023/08/30 02:12:19;;;;;;;71.90;5.38;;;;;;;6.95;100.00;92469.53;2111214;27;20068;-79
2023/08/30 02:13:26;;;;;;;17.65;4.78;;;;;;;6.99;100.00;92464.91;2117787;27;20110;-79
2023/08/30 02:14:28;;;;;;;26.33;5.47;;;;;;;6.81;100.00;92462.59;2115920;27;20033;-80
2023/08/30 02:15:31;;;;;;;10.75;4.93;;;;;;;6.85;100.00;92463.28;2115760;27;20027;-79
2023/08/30 02:16:33;;;;;;;5.65;4.85;;;;;;;6.85;100.00;92462.50;2117300;27;20443;-80
2023/08/30 02:17:36;;;;;;;5.97;4.88;;;;;;;6.82;100.00;92456.09;2110633;28;20020;-80
2023/08/30 02:18:38;;;;;;;5.60;5.10;;;;;;;6.79;100.00;92454.25;2116747;27;20023;-80
2023/08/30 02:19:39;;;;;;;4.75;4.35;;;;;;;6.80;100.00;92455.75;2117577;27;20054;-79
2023/08/30 02:20:40;;;;;;;6.45;4.50;;;;;;;6.94;100.00;92455.50;2118284;28;20022;-79
2023/08/30 02:21:41;;;;;;;5.63;5.10;;;;;;;6.83;100.00;92454.94;2117276;27;20133;-80
2023/08/30 02:22:42;;;;;;;6.88;4.82;;;;;;;6.81;100.00;92455.38;2100415;28;20513;-79
2023/08/30 02:23:43;;;;;;;5.13;4.70;;;;;;;6.84;100.00;92461.00;2108274;28;20024;-80
2023/08/30 02:24:44;;;;;;;8.43;4.57;;;;;;;6.81;100.00;92460.69;2116891;27;20488;-79
2023/08/30 02:25:45;;;;;;;5.28;4.70;;;;;;;6.80;100.00;92453.88;2118125;27;20383;-80
2023/08/30 02:26:46;;;;;;;4.68;4.28;;;;;;;6.80;100.00;92453.88;2113661;28;20023;-80
2023/08/30 02:27:47;;;;;;;5.00;4.40;;;;;;;6.81;100.00;92451.97;2107544;28;20076;-79
2023/08/30 02:28:48;;;;;;;5.85;4.20;;;;;;;6.81;100.00;92458.03;2114104;28;20422;-79
2023/08/30 02:29:49;;;;;;;5.10;4.60;;;;;;;6.86;100.00;92459.44;2117730;28;20039;-80
2023/08/30 02:30:53;;;;;;;5.03;4.60;;;;;;;6.90;100.00;92457.47;2118684;28;20078;-80
2023/08/30 02:31:54;;;;;;;4.93;4.32;;;;;;;6.91;100.00;92451.00;2104025;28;20056;-79
2023/08/30 02:32:55;;;;;;;7.35;4.30;;;;;;;6.91;100.00;92450.25;2100285;28;20025;-80
2023/08/30 02:33:56;;;;;;;23.40;5.25;;;;;;;6.90;100.00;92454.81;2099768;28;20078;-79
2023/08/30 02:34:57;;;;;;;7.30;4.60;;;;;;;6.74;100.00;92452.81;2108508;28;20404;-80
2023/08/30 02:35:58;;;;;;;5.45;4.90;;;;;;;6.79;100.00;92447.03;2109640;28;20035;-79
2023/08/30 02:36:59;;;;;;;5.35;4.80;;;;;;;6.69;100.00;92445.34;2117224;28;20023;-79
2023/08/30 02:38:04;;;;;;;8.85;5.20;;;;;;;6.75;100.00;92454.31;2120293;28;20051;-79
2023/08/30 02:39:05;;;;;;;8.20;5.18;;;;;;;6.76;100.00;92452.41;2099427;28;20531;-80
2023/08/30 02:40:07;;;;;;;18.48;4.40;;;;;;;6.75;100.00;92448.25;2108673;28;20032;-79
2023/08/30 02:41:08;;;;;;;16.98;6.00;;;;;;;6.82;100.00;92448.88;2106099;28;20376;-79
2023/08/30 02:42:09;;;;;;;10.35;5.45;;;;;;;6.77;100.00;92457.34;2099648;28;20038;-78
2023/08/30 02:43:10;;;;;;;9.45;5.10;;;;;;;6.63;100.00;92459.47;2117113;28;20510;-80
2023/08/30 02:44:11;;;;;;;5.22;4.45;;;;;;;6.54;100.00;92457.34;2113686;28;20027;-79
2023/08/30 02:45:12;;;;;;;11.52;4.57;;;;;;;6.59;100.00;92461.47;2115774;28;20106;-79
2023/08/30 02:46:13;;;;;;;6.18;4.22;;;;;;;6.62;100.00;92461.38;2120737;28;20038;-79
2023/08/30 02:47:14;;;;;;;12.85;4.45;;;;;;;6.57;100.00;92462.59;2117014;28;20107;-80
2023/08/30 02:48:15;;;;;;;4.45;4.07;;;;;;;6.64;100.00;92459.09;2116944;28;20045;-79
2023/08/30 02:49:16;;;;;;;4.70;4.30;;;;;;;6.54;100.00;92460.00;2108158;28;20019;-79
2023/08/30 02:50:17;;;;;;;4.63;4.20;;;;;;;6.52;100.00;92459.66;2115216;28;20050;-79
2023/08/30 02:51:18;;;;;;;5.13;4.63;;;;;;;6.55;100.00;92456.97;2113906;28;20047;-79
2023/08/30 02:52:19;;;;;;;4.25;3.95;;;;;;;6.59;100.00;92461.47;2120687;28;20419;-80
2023/08/30 02:53:20;;;;;;;4.28;3.97;;;;;;;6.61;100.00;92456.50;2117116;28;20377;-78
2023/08/30 02:54:22;;;;;;;4.05;3.72;;;;;;;6.65;100.00;92454.53;2112535;28;20039;-79
2023/08/30 02:55:23;;;;;;;5.30;4.00;;;;;;;6.61;100.00;92453.84;2114746;28;20075;-79
2023/08/30 02:56:26;;;;;;;4.28;3.92;;;;;;;6.65;100.00;92454.53;2108910;28;20172;-79
2023/08/30 02:57:27;;;;;;;3.88;3.58;;;;;;;6.62;100.00;92455.31;2117869;28;20027;-80
2023/08/30 02:58:28;;;;;;;4.82;3.75;;;;;;;6.59;100.00;92462.22;2117869;28;20023;-80
2023/08/30 02:59:29;;;;;;;4.05;3.75;;;;;;;6.54;100.00;92452.81;2117061;28;20050;-79
2023/08/30 03:00:30;;;;;;;4.15;3.80;;;;;;;6.56;100.00;92447.84;2107198;28;20032;-79
2023/08/30 03:01:31;;;;;;;6.57;4.13;;;;;;;6.54;100.00;92452.81;2107427;28;20034;-80
2023/08/30 03:02:33;;;;;;;4.20;3.90;;;;;;;6.50;100.00;92454.78;2117079;28;20049;-80
2023/08/30 03:03:34;;;;;;;4.20;3.80;;;;;;;6.53;100.00;92448.63;2117174;28;20147;-81
2023/08/30 03:04:35;;;;;;;4.60;4.20;;;;;;;6.50;100.00;92449.47;2117078;28;20266;-79
2023/08/30 03:05:36;;;;;;;6.15;4.22;;;;;;;6.38;100.00;92450.03;2116465;28;20260;-79
2023/08/30 03:06:37;;;;;;;10.07;4.55;;;;;;;6.44;100.00;92450.31;2115659;27;20023;-80
2023/08/30 03:07:38;;;;;;;35.70;5.18;;;;;;;6.41;100.00;92445.81;2116359;28;20031;-80
2023/08/30 03:08:39;;;;;;;9.02;3.60;;;;;;;6.46;100.00;92442.72;2108157;28;20023;-80
2023/08/30 03:09:40;;;;;;;5.80;4.35;;;;;;;6.48;100.00;92446.44;2117062;28;20095;-80
2023/08/30 03:10:41;;;;;;;4.45;4.05;;;;;;;6.48;100.00;92443.06;2117343;28;20031;-79
2023/08/30 03:11:42;;;;;;;7.50;4.50;;;;;;;6.41;100.00;92446.59;2116685;28;20081;-79
2023/08/30 03:12:43;;;;;;;4.93;3.90;;;;;;;6.45;100.00;92441.19;2108013;28;20056;-80
2023/08/30 03:13:44;;;;;;;12.98;4.28;;;;;;;6.38;100.00;92444.75;2116357;28;20099;-80
2023/08/30 03:14:45;;;;;;;18.85;4.35;;;;;;;6.43;100.00;92433.66;2117176;28;20023;-79
2023/08/30 03:15:46;;;;;;;16.55;4.20;;;;;;;6.37;100.00;92440.59;2117719;28;20065;-79
2023/08/30 03:16:47;;;;;;;11.38;4.55;;;;;;;6.37;100.00;92440.59;2116957;28;20019;-79
2023/08/30 03:17:47;;;;;;;8.98;4.50;;;;;;;6.28;100.00;92438.47;2116904;28;20023;-80
2023/08/30 03:18:49;;;;;;;5.90;4.20;;;;;;;6.42;100.00;92447.34;2117230;28;20152;-81
2023/08/30 03:19:53;;;;;;;8.38;4.18;;;;;;;6.50;100.00;92440.75;2117635;28;20103;-80
2023/08/30 03:21:02;;;;;;;16.08;5.15;;;;;;;6.60;100.00;92447.78;2115239;28;20099;-81
2023/08/30 03:22:03;;;;;;;8.52;4.50;;;;;;;6.53;100.00;92442.56;2117245;27;20024;-80
2023/08/30 03:23:04;;;;;;;5.22;4.68;;;;;;;6.43;100.00;92443.53;2108240;28;20048;-81
2023/08/30 03:24:05;;;;;;;5.95;4.35;;;;;;;6.42;100.00;92447.34;2099668;28;20121;-80
2023/08/30 03:25:06;;;;;;;16.23;4.93;;;;;;;6.39;100.00;92446.22;2119478;28;20051;-81
2023/08/30 03:26:15;;;;;;;5.55;4.13;;;;;;;6.51;100.00;92447.56;2116629;27;20676;-79
2023/08/30 03:27:16;;;;;;;50.75;5.00;;;;;;;6.40;100.00;92453.03;2121122;27;20699;-80
2023/08/30 03:28:17;;;;;;;21.85;5.15;;;;;;;6.43;100.00;92451.47;2110042;27;20031;-80
2023/08/30 03:29:18;;;;;;;17.70;6.20;;;;;;;6.40;100.00;92446.97;2109506;28;20023;-80
2023/08/30 03:30:19;;;;;;;20.30;5.35;;;;;;;6.41;100.00;92454.56;2116568;27;20052;-80
2023/08/30 03:31:21;;;;;;;35.50;5.63;;;;;;;6.34;100.00;92449.34;2118866;27;20028;-79
2023/08/30 03:32:22;;;;;;;21.80;5.10;;;;;;;6.36;100.00;92454.25;2114945;27;20022;-80
2023/08/30 03:33:23;;;;;;;46.85;6.25;;;;;;;6.33;100.00;92447.13;2118492;27;20026;-79
2023/08/30 03:34:24;;;;;;;18.75;5.35;;;;;;;6.46;100.00;92448.78;2114161;27;20059;-80
2023/08/30 03:35:25;;;;;;;4.93;4.40;;;;;;;6.28;100.00;92450.97;2109383;28;20485;-80
2023/08/30 03:36:26;;;;;;;40.92;5.30;;;;;;;6.25;100.00;92449.88;2109856;28;20032;-80
2023/08/30 03:37:27;;;;;;;39.22;5.05;;;;;;;6.25;100.00;92451.78;2121246;27;20030;-79
2023/08/30 03:38:28;;;;;;;6.43;4.68;;;;;;;6.35;100.00;92450.09;2110114;28;20507;-79
2023/08/30 03:39:29;;;;;;;84.53;5.70;;;;;;;6.25;100.00;92452.53;2117894;27;20023;-80
2023/08/30 03:40:30;;;;;;;71.13;6.10;;;;;;;6.23;100.00;92452.19;2108549;28;20200;-79
2023/08/30 03:41:31;;;;;;;40.42;5.03;;;;;;;6.25;100.00;92443.81;2118155;27;20020;-80
2023/08/30 03:42:32;;;;;;;42.15;4.80;;;;;;;6.25;100.00;92441.91;2119655;27;20023;-80
2023/08/30 03:43:33;;;;;;;20.08;4.80;;;;;;;6.29;100.00;92444.50;2115115;27;20031;-79
2023/08/30 03:44:35;;;;;;;46.53;5.10;;;;;;;6.35;100.00;92444.78;2118364;27;20479;-81
2023/08/30 03:45:36;;;;;;;9.88;4.32;;;;;;;6.35;100.00;92456.16;2117952;27;20027;-81
2023/08/30 03:46:37;;;;;;;41.60;4.82;;;;;;;6.36;100.00;92449.69;2118364;27;20024;-79
2023/08/30 03:47:38;;;;;;;63.28;5.43;;;;;;;6.28;100.00;92448.31;2113414;27;20027;-79
2023/08/30 03:48:39;;;;;;;21.98;4.00;;;;;;;6.40;100.00;92450.38;2116544;27;20116;-81
2023/08/30 03:49:40;;;;;;;95.15;5.75;;;;;;;6.41;100.00;92449.25;2118303;27;20100;-79
2023/08/30 03:50:41;;;;;;;40.78;5.28;;;;;;;6.38;100.00;92455.34;2116299;27;20039;-80
2023/08/30 03:51:42;;;;;;;123.88;5.97;;;;;;;6.36;100.00;92452.34;2118917;27;20394;-80
2023/08/30 03:52:43;;;;;;;92.00;5.65;;;;;;;6.42;100.00;92450.00;2117832;27;20028;-80
2023/08/30 03:53:44;;;;;;;152.38;6.72;;;;;;;6.31;100.00;92455.47;2117831;27;20150;-80
2023/08/30 03:54:45;;;;;;;150.65;7.07;;;;;;;6.34;100.00;92457.31;2119116;27;20024;-80
2023/08/30 03:55:46;;;;;;;168.23;8.00;;;;;;;6.34;100.00;92454.66;2119792;27;20022;-79
2023/08/30 03:56:47;;;;;;;204.57;7.57;;;;;;;6.38;100.00;92457.25;2118153;27;20391;-80
2023/08/30 03:57:48;;;;;;;239.52;7.95;;;;;;;6.24;100.00;92455.59;2118451;27;20123;-79
2023/08/30 03:58:49;;;;;;;72.03;5.35;;;;;;;6.29;100.00;92452.47;2115249;27;20479;-80
2023/08/30 03:59:50;;;;;;;173.52;7.05;;;;;;;6.30;100.00;92446.00;2118045;27;20472;-80
2023/08/30 04:00:51;;;;;;;145.23;6.80;;;;;;;6.38;100.00;92454.59;2120214;27;20055;-79
2023/08/30 04:01:52;;;;;;;134.75;6.57;;;;;;;6.42;100.00;92450.00;2113161;27;20026;-81
2023/08/30 04:02:53;;;;;;;108.97;5.70;;;;;;;6.38;100.00;92449.31;2118168;27;20023;-80
2023/08/30 04:03:54;;;;;;;109.97;6.07;;;;;;;6.24;100.00;92452.94;2098214;28;20093;-79
2023/08/30 04:04:55;;;;;;;69.32;4.78;;;;;;;6.34;100.00;92457.31;2101273;28;20024;-81
2023/08/30 04:05:56;;;;;;;87.82;5.18;;;;;;;6.33;100.00;92449.75;2098677;28;20020;-80
2023/08/30 04:06:57;;;;;;;57.97;4.78;;;;;;;6.31;100.00;92456.22;2101261;28;20457;-79
2023/08/30 04:07:58;;;;;;;71.95;5.22;;;;;;;6.34;100.00;92461.88;2109725;28;20024;-80
2023/08/30 04:08:59;;;;;;;85.00;5.93;;;;;;;6.29;100.00;92461.19;2109019;28;20047;-80
2023/08/30 04:10:02;;;;;;;21.38;3.83;;;;;;;6.34;100.00;92457.31;2118181;27;20023;-79
2023/08/30 04:11:03;;;;;;;80.00;5.32;;;;;;;6.25;100.00;92457.09;2118793;27;20408;-81
2023/08/30 04:12:05;;;;;;;33.10;4.68;;;;;;;6.32;100.00;92459.59;2117768;27;20078;-80
2023/08/30 04:13:07;;;;;;;132.02;6.55;;;;;;;6.33;100.00;92458.47;2118093;27;20028;-80
2023/08/30 04:14:08;;;;;;;51.15;4.90;;;;;;;6.41;100.00;92465.16;2100853;28;20024;-80
2023/08/30 04:15:12;;;;;;;63.85;4.63;;;;;;;6.48;100.00;92453.66;2109839;28;20028;-81
2023/08/30 04:16:13;;;;;;;73.45;4.82;;;;;;;6.65;100.00;92449.97;2117349;27;20131;-80
2023/08/30 04:17:14;;;;;;;44.13;4.60;;;;;;;6.52;100.00;92460.41;2117557;27;20024;-79
2023/08/30 04:18:15;;;;;;;23.58;4.32;;;;;;;6.34;100.00;92456.56;2118203;27;20050;-80
2023/08/30 04:19:16;;;;;;;16.00;3.80;;;;;;;6.31;100.00;92455.47;2118733;27;20110;-79
2023/08/30 04:20:17;;;;;;;8.32;4.20;;;;;;;6.20;100.00;92452.25;2117811;27;20046;-79
2023/08/30 04:21:17;;;;;;;6.10;4.00;;;;;;;6.23;100.00;92464.69;2114112;27;20030;-80
2023/08/30 04:22:19;;;;;;;8.80;4.20;;;;;;;6.24;100.00;92460.91;2107903;28;20047;-80
2023/08/30 04:23:19;;;;;;;5.28;3.90;;;;;;;6.27;100.00;92458.16;2117646;27;20109;-80
2023/08/30 04:24:20;;;;;;;4.13;3.83;;;;;;;6.28;100.00;92456.28;2117605;27;20062;-80
2023/08/30 04:25:22;;;;;;;4.78;3.88;;;;;;;6.26;100.00;92453.28;2116261;27;20023;-79
2023/08/30 04:26:23;;;;;;;3.70;3.40;;;;;;;6.36;100.00;92455.00;2114338;27;20500;-81
2023/08/30 04:27:24;;;;;;;4.78;3.85;;;;;;;6.36;100.00;92446.28;2114356;27;20023;-80
2023/08/30 04:28:26;;;;;;;3.78;3.47;;;;;;;6.20;100.00;92454.91;2118011;27;20020;-81
2023/08/30 04:29:27;;;;;;;4.45;3.95;;;;;;;6.02;100.00;92453.28;2110276;28;20581;-78
2023/08/30 04:30:28;;;;;;;4.30;3.90;;;;;;;6.04;100.00;92453.59;2117970;27;20023;-79
2023/08/30 04:31:31;;;;;;;4.20;3.72;;;;;;;6.07;100.00;92459.28;2118015;27;20024;-79
2023/08/30 04:32:32;;;;;;;4.90;3.60;;;;;;;6.05;100.00;92457.00;2117540;27;20348;-79
2023/08/30 04:33:33;;;;;;;4.03;3.72;;;;;;;6.07;100.00;92457.38;2118679;27;20464;-79
2023/08/30 04:34:34;;;;;;;4.22;3.83;;;;;;;6.08;100.00;92458.13;2118582;27;20046;-79
2023/08/30 04:35:35;;;;;;;6.28;4.00;;;;;;;5.98;100.00;92465.84;2117633;27;20042;-79
2023/08/30 04:36:36;;;;;;;5.65;4.25;;;;;;;6.03;100.00;92464.63;2109393;28;20110;-79
2023/08/30 04:37:40;;;;;;;5.10;4.20;;;;;;;6.15;100.00;92463.31;2108235;27;20028;-81
2023/08/30 04:38:41;;;;;;;10.85;4.07;;;;;;;6.24;100.00;92460.91;2118662;27;20093;-79
2023/08/30 04:39:42;;;;;;;14.82;4.63;;;;;;;6.24;100.00;92456.34;2117363;27;20076;-80
2023/08/30 04:40:43;;;;;;;12.95;4.50;;;;;;;6.12;100.00;92461.47;2100559;28;20094;-80
2023/08/30 04:41:44;;;;;;;7.18;3.95;;;;;;;6.27;100.00;92454.75;2107854;28;20103;-80
2023/08/30 04:42:45;;;;;;;5.97;4.05;;;;;;;6.25;100.00;92463.16;2117531;27;20463;-79
2023/08/30 04:43:46;;;;;;;4.53;3.70;;;;;;;6.34;100.00;92462.63;2108410;28;20433;-79
2023/08/30 04:44:47;;;;;;;6.38;4.30;;;;;;;6.27;100.00;92457.41;2118106;27;20084;-80
2023/08/30 04:45:48;;;;;;;6.57;4.00;;;;;;;6.22;100.00;92458.63;2117356;27;20065;-79
2023/08/30 04:46:49;;;;;;;10.25;4.35;;;;;;;6.13;100.00;92466.38;2118238;27;20102;-79
2023/08/30 04:47:50;;;;;;;7.97;4.53;;;;;;;6.31;100.00;92464.16;2118951;27;20026;-81
2023/08/30 04:48:51;;;;;;;17.83;4.50;;;;;;;6.25;100.00;92465.06;2116981;27;20478;-78
2023/08/30 04:49:52;;;;;;;29.77;5.20;;;;;;;6.24;100.00;92459.00;2117922;27;20027;-79
2023/08/30 04:51:02;;;;;;;63.95;5.20;;;;;;;6.27;100.00;92462.72;2109087;28;20393;-80